Time;durP1;ratioP1;P1;durP2;ratioP2;P2;SDS_P1;SDS_P2;PMS_P1;PMS_P2;Temp;Humidity;BMP_temperature;BMP_pressure;BME280_temperature;BME280_humidity;BME280_pressure;Samples;Min_cycle;Max_cycle;Signal;HPM_P1;HPM_P2
2022/05/23 00:00:51;;;;;;;7.03;2.80;;;19.40;82.30;;;;;;5012091;28;20034;-68
2022/05/23 00:03:56;;;;;;;3.30;1.85;;;19.40;82.90;;;;;;5012296;28;20056;-69
2022/05/23 00:07:00;;;;;;;7.57;2.28;;;19.50;82.70;;;;;;5011575;28;20042;-68
2022/05/23 00:10:07;;;;;;;3.97;2.10;;;19.50;82.80;;;;;;5012539;28;20049;-68
2022/05/23 00:13:11;;;;;;;7.43;2.42;;;19.50;83.10;;;;;;5011819;28;20042;-68
2022/05/23 00:16:21;;;;;;;5.50;2.33;;;19.60;83.50;;;;;;5011315;28;20038;-68
2022/05/23 00:19:25;;;;;;;2.97;2.17;;;19.60;83.40;;;;;;5011651;28;20030;-68
2022/05/23 00:22:31;;;;;;;6.80;2.67;;;19.60;83.90;;;;;;5011947;28;20061;-68
2022/05/23 00:25:35;;;;;;;4.97;2.20;;;19.60;83.90;;;;;;5011316;28;20102;-69
2022/05/23 00:28:39;;;;;;;5.72;2.22;;;19.60;84.00;;;;;;5011278;28;20045;-68
2022/05/23 00:35:17;;;;;;;;;;;19.60;84.20;;;;;;5011950;28;20026;-68
2022/05/23 00:38:26;;;;;;;5.07;2.05;;;19.50;84.20;;;;;;5021755;28;19920;-68
2022/05/23 00:45:03;;;;;;;;;;;19.40;84.20;;;;;;5011998;28;20051;-68
2022/05/23 00:48:08;;;;;;;7.35;2.58;;;19.40;83.70;;;;;;5010644;28;19920;-68
2022/05/23 00:51:15;;;;;;;14.23;2.38;;;19.40;84.20;;;;;;5021598;28;20045;-69
2022/05/23 00:54:21;;;;;;;4.93;2.33;;;18.70;85.80;;;;;;5011118;28;20153;-69
2022/05/23 00:57:33;;;;;;;5.75;2.30;;;18.40;87.10;;;;;;5010920;28;20040;-68
2022/05/23 01:00:37;;;;;;;4.00;1.92;;;18.30;88.40;;;;;;5021793;28;20052;-69
2022/05/23 01:03:42;;;;;;;6.50;3.15;;;18.10;89.60;;;;;;5010303;28;20487;-68
2022/05/23 01:06:46;;;;;;;3.92;2.30;;;17.90;90.20;;;;;;5010134;28;20061;-69
2022/05/23 01:09:51;;;;;;;7.55;2.58;;;17.60;90.70;;;;;;5011150;28;20053;-68
2022/05/23 01:12:56;;;;;;;8.27;2.60;;;17.30;91.50;;;;;;5010283;28;20060;-68
2022/05/23 01:16:00;;;;;;;7.22;2.63;;;17.00;92.10;;;;;;5010222;28;20049;-69
2022/05/23 01:19:08;;;;;;;8.05;2.50;;;16.80;92.80;;;;;;5010001;28;20041;-68
2022/05/23 01:22:50;;;;;;;7.57;3.08;;;16.60;93.50;;;;;;5009819;28;20053;-69
2022/05/23 01:26:12;;;;;;;4.93;2.63;;;16.70;94.20;;;;;;5009477;28;20049;-68
2022/05/23 01:29:24;;;;;;;4.68;2.80;;;16.60;94.40;;;;;;5009871;28;20037;-68
2022/05/23 01:32:32;;;;;;;5.18;2.70;;;16.70;94.80;;;;;;5010282;28;20060;-68
2022/05/23 01:35:38;;;;;;;5.97;2.58;;;16.70;95.40;;;;;;5009729;28;20041;-68
2022/05/23 01:38:43;;;;;;;4.82;2.90;;;16.60;95.80;;;;;;5009805;28;20060;-68
2022/05/23 01:41:53;;;;;;;3.42;2.45;;;16.50;96.30;;;;;;5009801;28;20049;-69
2022/05/23 01:44:57;;;;;;;5.75;3.20;;;16.50;96.90;;;;;;5012692;28;20049;-68
2022/05/23 01:48:01;;;;;;;5.22;2.83;;;16.50;97.10;;;;;;5014117;28;20056;-68
2022/05/23 01:51:06;;;;;;;7.50;2.95;;;16.40;97.70;;;;;;5013314;28;20052;-68
2022/05/23 01:54:12;;;;;;;6.00;3.08;;;16.30;98.50;;;;;;5013312;28;20041;-68
2022/05/23 01:57:17;;;;;;;5.18;3.30;;;16.20;99.70;;;;;;5013178;28;20036;-68
2022/05/23 02:03:47;;;;;;;7.47;3.63;;;16.00;99.90;;;;;;5025003;28;20049;-68
2022/05/23 02:06:51;;;;;;;6.57;3.42;;;16.00;99.90;;;;;;5012946;28;20045;-68
2022/05/23 02:10:10;;;;;;;6.07;3.10;;;16.00;99.90;;;;;;5013191;28;20045;-68
2022/05/23 02:13:19;;;;;;;8.13;3.25;;;15.90;99.90;;;;;;5013217;28;20045;-69
2022/05/23 02:16:25;;;;;;;8.95;3.25;;;15.90;99.90;;;;;;5012644;28;20041;-69
2022/05/23 02:19:38;;;;;;;10.13;3.60;;;15.80;99.90;;;;;;5013943;28;20041;-68
2022/05/23 02:22:52;;;;;;;9.02;3.75;;;15.80;99.90;;;;;;5024238;28;20044;-68
2022/05/23 02:26:00;;;;;;;4.47;3.38;;;15.80;99.90;;;;;;5024296;28;20559;-68
2022/05/23 02:29:28;;;;;;;10.13;3.17;;;15.80;99.90;;;;;;5013484;28;20045;-68
2022/05/23 02:32:33;;;;;;;6.78;3.60;;;15.80;99.90;;;;;;5012572;28;20049;-68
2022/05/23 02:35:42;;;;;;;8.80;3.67;;;15.80;99.90;;;;;;5024086;28;20041;-68
2022/05/23 02:38:47;;;;;;;6.68;3.92;;;15.90;99.90;;;;;;5012290;28;20224;-68
2022/05/23 02:41:51;;;;;;;6.95;3.03;;;15.90;99.90;;;;;;5012106;28;20049;-68
2022/05/23 02:44:59;;;;;;;7.00;3.38;;;16.00;99.90;;;;;;5012544;28;20049;-68
2022/05/23 02:48:08;;;;;;;6.03;3.50;;;16.00;99.90;;;;;;5011955;28;20053;-68
2022/05/23 02:51:12;;;;;;;5.78;3.08;;;16.10;99.90;;;;;;5012383;28;20048;-68
2022/05/23 02:54:18;;;;;;;10.23;3.58;;;16.10;99.90;;;;;;5023672;28;20044;-68
2022/05/23 02:57:30;;;;;;;8.10;3.38;;;16.20;99.90;;;;;;5012108;28;20037;-68
2022/05/23 03:00:39;;;;;;;6.95;2.97;;;16.20;99.90;;;;;;5012023;28;20037;-68
2022/05/23 03:03:46;;;;;;;6.82;3.47;;;16.30;99.90;;;;;;5012120;28;20061;-68
2022/05/23 03:06:51;;;;;;;6.05;2.92;;;16.30;99.90;;;;;;5011544;28;20036;-68
2022/05/23 03:09:55;;;;;;;8.18;3.47;;;16.30;99.90;;;;;;5012002;28;20056;-68
2022/05/23 03:12:59;;;;;;;11.95;4.32;;;15.90;99.90;;;;;;5012111;28;20057;-68
2022/05/23 03:16:08;;;;;;;8.82;3.90;;;15.70;99.90;;;;;;5011917;28;20048;-68
2022/05/23 03:19:15;;;;;;;8.68;4.07;;;15.50;99.90;;;;;;5011778;28;20476;-68
2022/05/23 03:29:05;;;;;;;8.55;4.55;;;15.20;99.90;;;;;;5023174;28;20062;-68
2022/05/23 03:32:09;;;;;;;9.75;4.68;;;15.10;99.90;;;;;;5011664;28;20045;-68
2022/05/23 03:35:13;;;;;;;9.15;4.93;;;15.10;99.90;;;;;;5011620;28;20049;-68
2022/05/23 03:38:17;;;;;;;12.73;4.75;;;15.10;99.90;;;;;;5011361;28;20048;-68
2022/05/23 03:41:24;;;;;;;7.90;3.70;;;15.00;99.90;;;;;;5012730;28;20060;-68
2022/05/23 03:44:29;;;;;;;6.50;3.92;;;15.10;99.90;;;;;;5011396;28;20057;-68
2022/05/23 03:47:33;;;;;;;9.55;3.80;;;15.10;99.90;;;;;;5022576;28;20512;-68
2022/05/23 03:50:43;;;;;;;9.13;3.35;;;15.10;99.90;;;;;;5011129;28;20052;-68
2022/05/23 03:53:48;;;;;;;8.30;3.10;;;15.20;99.90;;;;;;5011779;28;20053;-68
2022/05/23 03:57:00;;;;;;;6.38;3.03;;;15.30;99.90;;;;;;5011782;28;20049;-68
2022/05/23 04:00:06;;;;;;;6.03;3.38;;;15.30;99.90;;;;;;5011157;28;20037;-68
2022/05/23 04:03:20;;;;;;;9.02;3.83;;;15.30;99.90;;;;;;5012022;28;20053;-68
2022/05/23 04:06:26;;;;;;;8.48;3.92;;;15.30;99.90;;;;;;5010702;28;20064;-68
2022/05/23 04:09:35;;;;;;;5.50;3.53;;;15.40;99.90;;;;;;5011162;28;20049;-68
2022/05/23 04:12:40;;;;;;;8.98;3.67;;;15.40;99.90;;;;;;5010816;28;20041;-68
2022/05/23 04:15:44;;;;;;;7.78;3.83;;;15.40;99.90;;;;;;5011126;28;20049;-69
2022/05/23 04:18:48;;;;;;;8.88;4.20;;;15.50;99.90;;;;;;5011056;28;20056;-68
2022/05/23 04:21:53;;;;;;;11.27;3.90;;;15.50;99.90;;;;;;5010680;28;20049;-68
2022/05/23 04:25:06;;;;;;;6.13;3.72;;;15.60;99.90;;;;;;5010014;28;20048;-68
2022/05/23 04:28:12;;;;;;;12.02;3.80;;;15.80;99.90;;;;;;5021773;28;20488;-69
2022/05/23 04:31:20;;;;;;;12.63;3.65;;;15.90;99.90;;;;;;5011241;28;20053;-68
2022/05/23 04:38:06;;;;;;;9.77;3.83;;;16.20;99.90;;;;;;5021236;28;20065;-68
2022/05/23 04:41:13;;;;;;;6.75;3.85;;;17.20;99.90;;;;;;5021979;28;20045;-68
2022/05/23 04:44:33;;;;;;;5.32;3.60;;;17.60;99.90;;;;;;5010442;28;20048;-68
2022/05/23 04:51:00;;;;;;;6.40;3.40;;;17.80;99.90;;;;;;5011061;28;20045;-68
2022/05/23 04:54:11;;;;;;;6.75;3.45;;;17.80;99.90;;;;;;5010398;28;20049;-68
2022/05/23 04:57:15;;;;;;;5.35;2.97;;;18.00;99.90;;;;;;5009974;28;20049;-68
2022/05/23 05:00:21;;;;;;;8.27;3.60;;;18.30;99.90;;;;;;4998989;28;20045;-68
2022/05/23 05:03:35;;;;;;;10.27;3.28;;;18.60;99.90;;;;;;5010438;28;20476;-68
2022/05/23 05:06:39;;;;;;;7.47;3.33;;;18.90;99.90;;;;;;5009821;28;20049;-68
2022/05/23 05:09:43;;;;;;;6.63;2.78;;;19.50;99.90;;;;;;5010386;28;20045;-69
2022/05/23 05:12:48;;;;;;;5.25;2.80;;;20.10;99.90;;;;;;5010194;28;20496;-68
2022/05/23 05:16:02;;;;;;;13.05;3.47;;;20.40;99.90;;;;;;5009849;28;20040;-69
2022/05/23 05:19:08;;;;;;;9.00;3.15;;;20.40;99.90;;;;;;5009653;28;20057;-68
2022/05/23 05:22:30;;;;;;;5.72;2.83;;;20.50;99.90;;;;;;5010696;28;20408;-68
2022/05/23 05:26:06;;;;;;;4.18;2.58;;;21.20;99.90;;;;;;5009337;28;20049;-68
2022/05/23 05:29:16;;;;;;;4.90;2.80;;;21.40;99.90;;;;;;5020976;28;20045;-68
2022/05/23 05:32:45;;;;;;;7.05;2.60;;;21.40;99.90;;;;;;5009374;28;20041;-68
2022/05/23 05:36:01;;;;;;;8.43;2.70;;;21.50;99.90;;;;;;5009497;28;20057;-68
2022/05/23 05:39:07;;;;;;;6.57;2.90;;;22.00;99.90;;;;;;5010660;28;20060;-68
2022/05/23 05:42:32;;;;;;;6.80;2.33;;;22.40;99.90;;;;;;5009624;28;20388;-68
2022/05/23 05:45:54;;;;;;;4.65;2.47;;;23.50;98.70;;;;;;5009958;28;20049;-69
2022/05/23 05:49:22;;;;;;;5.97;2.55;;;24.40;96.90;;;;;;5009548;28;20500;-69
2022/05/23 05:52:30;;;;;;;5.68;2.45;;;24.70;95.40;;;;;;5009627;28;20045;-68
2022/05/23 05:55:39;;;;;;;5.33;2.17;;;24.60;94.10;;;;;;5009985;28;20385;-69
2022/05/23 05:58:44;;;;;;;6.10;2.20;;;25.00;94.30;;;;;;5010142;28;20284;-69
2022/05/23 06:01:51;;;;;;;11.25;2.20;;;25.00;93.60;;;;;;5009687;28;20404;-69
2022/05/23 06:04:56;;;;;;;6.65;2.40;;;24.50;93.70;;;;;;5021197;28;20053;-69
2022/05/23 06:11:34;;;;;;;5.18;2.30;;;24.50;94.30;;;;;;5020792;28;20416;-69
2022/05/23 06:14:53;;;;;;;13.18;3.40;;;24.90;93.40;;;;;;5020744;28;20041;-69
2022/05/23 06:17:58;;;;;;;6.47;3.17;;;25.30;93.40;;;;;;5020660;28;20204;-69
2022/05/23 06:21:06;;;;;;;9.57;5.32;;;23.90;93.40;;;;;;5024189;28;20044;-69
2022/05/23 06:24:15;;;;;;;25.17;10.50;;;24.40;93.40;;;;;;5000587;28;20056;-69
2022/05/23 06:27:22;;;;;;;14.90;7.80;;;24.90;93.20;;;;;;5017188;28;20049;-69
2022/05/23 06:30:27;;;;;;;14.18;5.68;;;25.80;92.00;;;;;;5029987;28;20484;-69
2022/05/23 06:33:31;;;;;;;15.38;4.78;;;26.50;91.10;;;;;;5032624;28;20412;-67
2022/05/23 06:36:44;;;;;;;10.68;4.10;;;25.60;91.20;;;;;;5016725;28;20045;-69
2022/05/23 06:39:47;;;;;;;13.00;3.85;;;25.30;91.30;;;;;;5014570;28;20491;-69
2022/05/23 06:43:18;;;;;;;8.32;3.40;;;25.50;91.20;;;;;;5020620;28;20519;-69
2022/05/23 06:46:38;;;;;;;6.53;3.03;;;24.80;92.10;;;;;;5030628;28;20416;-70
2022/05/23 06:50:15;;;;;;;4.50;2.97;;;24.50;92.10;;;;;;5023044;28;20052;-70
2022/05/23 06:53:55;;;;;;;6.13;2.60;;;23.20;92.80;;;;;;5025225;28;20052;-69
2022/05/23 06:57:22;;;;;;;6.68;2.70;;;24.60;93.10;;;;;;5029223;28;20052;-70
2022/05/23 07:00:26;;;;;;;6.32;2.80;;;25.20;92.80;;;;;;5025626;28;20081;-69
2022/05/23 07:03:41;;;;;;;5.88;2.20;;;25.00;92.40;;;;;;5029118;28;20060;-70
2022/05/23 07:13:33;;;;;;;5.05;2.30;;;27.90;90.40;;;;;;5036832;28;20048;-69
2022/05/23 07:16:37;;;;;;;3.47;2.25;;;28.20;89.80;;;;;;5027402;28;20044;-70
2022/05/23 07:19:43;;;;;;;4.97;2.22;;;29.30;88.40;;;;;;5030422;28;20044;-70
2022/05/23 07:22:50;;;;;;;3.85;2.25;;;30.20;86.60;;;;;;5020288;28;20052;-68
2022/05/23 07:25:54;;;;;;;5.80;2.55;;;29.30;85.60;;;;;;5028639;28;20044;-70
2022/05/23 07:29:31;;;;;;;5.28;2.33;;;28.30;86.30;;;;;;5025877;28;20045;-68
2022/05/23 07:32:40;;;;;;;7.35;2.88;;;28.80;86.00;;;;;;5026029;28;20052;-68
2022/05/23 07:35:55;;;;;;;8.07;2.33;;;29.20;85.60;;;;;;5023258;28;20048;-70
2022/05/23 07:39:00;;;;;;;7.20;2.40;;;28.60;86.70;;;;;;5026321;28;20052;-70
2022/05/23 07:42:35;;;;;;;6.38;2.80;;;30.20;85.10;;;;;;5026444;28;20050;-72
2022/05/23 07:45:41;;;;;;;6.05;2.45;;;29.40;84.20;;;;;;5026133;28;20048;-70
2022/05/23 07:48:49;;;;;;;5.80;2.50;;;30.40;84.90;;;;;;5026572;28;20063;-70
2022/05/23 07:51:56;;;;;;;5.68;2.65;;;32.20;83.20;;;;;;5025352;28;20048;-70
2022/05/23 08:01:57;;;;;;;4.65;3.00;;;31.60;81.40;;;;;;5021370;28;20053;-70
2022/05/23 08:05:04;;;;;;;7.78;2.60;;;31.10;81.00;;;;;;5027697;28;20040;-72
2022/05/23 08:08:08;;;;;;;8.80;3.25;;;31.60;81.90;;;;;;5023852;28;20044;-71
2022/05/23 08:11:13;;;;;;;9.95;2.70;;;30.50;81.40;;;;;;5022086;28;20044;-71
2022/05/23 08:14:43;;;;;;;5.63;2.70;;;31.30;82.40;;;;;;5027168;28;20041;-71
2022/05/23 08:17:56;;;;;;;8.98;3.42;;;32.80;80.80;;;;;;5027311;28;20037;-71
2022/05/23 08:21:15;;;;;;;8.43;3.50;;;30.80;80.80;;;;;;5041666;28;20040;-70
2022/05/23 08:24:21;;;;;;;6.65;3.25;;;32.90;80.10;;;;;;5025314;28;20044;-70
2022/05/23 08:27:26;;;;;;;6.13;3.10;;;33.70;80.20;;;;;;5020232;28;20046;-71
2022/05/23 08:30:31;;;;;;;7.40;2.90;;;32.90;79.80;;;;;;5028109;28;20049;-72
2022/05/23 08:33:59;;;;;;;6.80;3.00;;;35.00;79.30;;;;;;5025373;28;20072;-72
2022/05/23 08:37:07;;;;;;;7.43;3.00;;;34.60;78.30;;;;;;5024290;28;20507;-72
2022/05/23 08:40:11;;;;;;;11.13;2.85;;;33.80;77.70;;;;;;5025902;28;20054;-70
2022/05/23 08:43:35;;;;;;;7.95;3.05;;;32.30;81.30;;;;;;5033803;28;20048;-71
2022/05/23 08:47:20;;;;;;;6.10;2.60;;;32.00;82.50;;;;;;5024200;28;20499;-71
2022/05/23 08:50:55;;;;;;;6.28;2.75;;;35.20;79.50;;;;;;5030460;28;20037;-71
2022/05/23 08:54:28;;;;;;;9.77;2.72;;;34.50;79.00;;;;;;5027258;28;20044;-71
2022/05/23 08:58:13;;;;;;;6.18;2.40;;;31.70;81.80;;;;;;5020868;28;20044;-70
2022/05/23 09:01:24;;;;;;;9.35;2.55;;;32.90;80.60;;;;;;5023557;28;20045;-72
2022/05/23 09:04:46;;;;;;;6.75;2.60;;;33.40;78.90;;;;;;5027403;28;20376;-71
2022/05/23 09:07:59;;;;;;;7.60;2.63;;;34.40;78.60;;;;;;5025830;28;20052;-71
2022/05/23 09:11:38;;;;;;;4.32;2.03;;;35.90;76.80;;;;;;5015371;28;20044;-73
2022/05/23 09:14:43;;;;;;;9.13;2.50;;;35.00;75.00;;;;;;5021428;28;20037;-71
2022/05/23 09:17:54;;;;;;;9.63;2.47;;;36.40;76.10;;;;;;5021225;28;20032;-71
2022/05/23 09:21:01;;;;;;;9.00;2.35;;;33.10;76.10;;;;;;5027668;28;20040;-71
2022/05/23 09:24:06;;;;;;;4.95;2.53;;;32.90;76.30;;;;;;5024980;28;20044;-71
2022/05/23 09:27:30;;;;;;;4.00;2.17;;;34.50;76.40;;;;;;5025802;28;20045;-72
2022/05/23 09:30:35;;;;;;;12.00;2.42;;;34.90;72.60;;;;;;5027443;28;20516;-73
2022/05/23 09:33:50;;;;;;;9.50;2.35;;;37.90;72.30;;;;;;5029641;28;20060;-73
2022/05/23 09:37:02;;;;;;;4.30;1.80;;;37.20;69.90;;;;;;5026390;28;20060;-71
2022/05/23 09:40:09;;;;;;;6.18;2.10;;;35.80;70.90;;;;;;5025470;28;20044;-71
2022/05/23 09:50:26;;;;;;;7.68;2.63;;;36.30;70.20;;;;;;5028833;28;20052;-72
2022/05/23 09:53:53;;;;;;;4.57;2.20;;;36.00;71.40;;;;;;5015449;28;20056;-72
2022/05/23 09:57:00;;;;;;;7.43;2.20;;;35.80;70.00;;;;;;5024032;28;20037;-72
2022/05/23 10:00:09;;;;;;;6.57;2.65;;;33.70;70.80;;;;;;5027892;28;20041;-73
2022/05/23 10:03:19;;;;;;;2.95;1.67;;;34.40;69.90;;;;;;5026180;28;20068;-71
2022/05/23 10:06:46;;;;;;;8.10;2.35;;;34.70;72.60;;;;;;5029221;28;20392;-72
2022/05/23 10:10:02;;;;;;;7.60;2.50;;;33.90;71.30;;;;;;5029037;28;20041;-71
2022/05/23 10:13:32;;;;;;;5.63;2.00;;;35.80;72.10;;;;;;5029085;28;20052;-70
2022/05/23 10:16:50;;;;;;;4.90;1.90;;;34.00;68.80;;;;;;5027275;28;20048;-71
2022/05/23 10:20:13;;;;;;;4.32;2.00;;;37.70;68.20;;;;;;5031222;28;20373;-71
2022/05/23 10:23:22;;;;;;;4.22;1.90;;;40.90;68.30;;;;;;5031749;28;20052;-73
2022/05/23 10:26:29;;;;;;;4.95;1.55;;;37.70;63.60;;;;;;5030936;28;20419;-72
2022/05/23 10:29:55;;;;;;;4.15;1.63;;;37.40;66.60;;;;;;5023713;28;20052;-70
2022/05/23 10:33:13;;;;;;;7.60;1.83;;;39.40;64.40;;;;;;5023506;28;21004;-71
2022/05/23 10:36:24;;;;;;;5.90;1.80;;;41.20;63.10;;;;;;5035890;28;20045;-72
2022/05/23 10:43:04;;;;;;;8.95;2.10;;;39.30;61.30;;;;;;5027936;28;20048;-70
2022/05/23 10:46:08;;;;;;;7.03;2.53;;;41.00;63.20;;;;;;5028416;28;20048;-72
2022/05/23 10:49:36;;;;;;;10.57;2.47;;;38.70;63.20;;;;;;5031278;28;20036;-71
2022/05/23 10:52:56;;;;;;;8.85;2.95;;;39.30;63.30;;;;;;5027957;28;20044;-71
2022/05/23 10:56:39;;;;;;;7.53;2.30;;;35.80;66.20;;;;;;5029863;28;20052;-73
2022/05/23 11:00:04;;;;;;;4.40;1.63;;;34.40;66.70;;;;;;5027927;28;20283;-72
2022/05/23 11:03:18;;;;;;;8.35;2.42;;;37.90;64.90;;;;;;5030012;28;20047;-72
2022/05/23 11:06:31;;;;;;;4.65;2.03;;;38.50;62.50;;;;;;5027570;28;20049;-70
2022/05/23 11:10:06;;;;;;;9.85;1.83;;;39.70;63.10;;;;;;5030058;28;20037;-72
2022/05/23 11:13:14;;;;;;;4.75;2.13;;;36.40;64.40;;;;;;5037207;28;20396;-70
2022/05/23 11:16:24;;;;;;;5.30;2.13;;;38.40;64.60;;;;;;5022412;28;20064;-72
2022/05/23 11:19:41;;;;;;;8.18;1.90;;;39.40;63.60;;;;;;5029140;28;20044;-72
2022/05/23 11:22:53;;;;;;;5.25;2.00;;;39.00;64.70;;;;;;5027327;28;20041;-72
2022/05/23 11:26:10;;;;;;;3.05;1.67;;;39.20;62.60;;;;;;5028838;28;20044;-72
2022/05/23 11:36:34;;;;;;;7.18;1.92;;;37.50;63.10;;;;;;5022942;28;20393;-71
2022/05/23 11:39:49;;;;;;;9.10;1.90;;;38.70;62.20;;;;;;5021939;28;20044;-72
2022/05/23 11:43:03;;;;;;;5.38;1.88;;;37.20;63.40;;;;;;5023081;28;20052;-72
2022/05/23 11:46:11;;;;;;;4.32;2.00;;;36.10;64.60;;;;;;5018179;28;20048;-71
2022/05/23 11:49:41;;;;;;;2.13;1.52;;;37.20;63.50;;;;;;5016786;28;20511;-72
2022/05/23 11:53:02;;;;;;;4.75;2.10;;;38.50;63.30;;;;;;5023174;28;20036;-72
2022/05/23 11:56:30;;;;;;;9.15;1.90;;;37.90;62.30;;;;;;5023089;28;20380;-73
2022/05/23 11:59:37;;;;;;;4.43;1.90;;;36.10;62.50;;;;;;5021241;28;20051;-71
2022/05/23 12:03:12;;;;;;;4.85;1.77;;;38.10;62.20;;;;;;5023850;28;20244;-71
2022/05/23 12:06:17;;;;;;;8.25;1.90;;;39.50;60.50;;;;;;5021926;28;20056;-71
2022/05/23 12:09:34;;;;;;;7.18;1.70;;;40.00;61.00;;;;;;5020176;28;20492;-72
2022/05/23 12:12:47;;;;;;;4.82;1.85;;;39.30;58.90;;;;;;5024210;28;20048;-72
2022/05/23 12:15:53;;;;;;;6.00;1.90;;;37.80;62.40;;;;;;5023436;28;20048;-72
2022/05/23 12:19:22;;;;;;;4.07;2.08;;;37.20;60.50;;;;;;5021638;28;20064;-71
2022/05/23 12:22:36;;;;;;;3.95;1.63;;;37.10;60.70;;;;;;5023049;28;20060;-72
2022/05/23 12:25:40;;;;;;;6.18;1.60;;;35.90;59.80;;;;;;5024703;28;20049;-71
2022/05/23 12:29:19;;;;;;;3.63;1.48;;;35.30;61.20;;;;;;5019783;28;20476;-71
2022/05/23 12:32:27;;;;;;;3.53;1.50;;;36.30;60.00;;;;;;5022589;28;20408;-71
2022/05/23 12:35:40;;;;;;;9.25;1.98;;;37.40;62.30;;;;;;5022919;28;20056;-71
2022/05/23 12:39:04;;;;;;;3.00;1.85;;;37.90;57.00;;;;;;5020313;28;20056;-72
2022/05/23 12:42:37;;;;;;;6.60;1.75;;;36.20;58.90;;;;;;5023916;28;20052;-72
2022/05/23 12:46:15;;;;;;;3.72;1.05;;;36.30;55.50;;;;;;5020654;28;20129;-71
2022/05/23 12:49:39;;;;;;;9.82;1.58;;;35.20;53.10;;;;;;5020224;28;20056;-71
2022/05/23 12:53:20;;;;;;;9.35;1.73;;;35.10;55.90;;;;;;5020735;28;20388;-71
2022/05/23 12:56:34;;;;;;;4.13;1.80;;;36.30;55.40;;;;;;5021693;28;20404;-71
2022/05/23 12:59:56;;;;;;;6.85;1.20;;;36.80;54.50;;;;;;5021397;28;20283;-71
2022/05/23 13:03:07;;;;;;;2.58;1.23;;;37.20;54.40;;;;;;5023054;28;20044;-72
2022/05/23 13:06:16;;;;;;;3.05;1.25;;;37.20;55.80;;;;;;5024084;28;20040;-72
2022/05/23 13:09:44;;;;;;;4.15;1.00;;;37.00;52.90;;;;;;5022332;28;20534;-72
2022/05/23 13:13:05;;;;;;;3.50;1.42;;;34.00;51.70;;;;;;5026779;28;20376;-72
2022/05/23 13:16:31;;;;;;;2.67;1.60;;;34.20;53.30;;;;;;5026033;28;20120;-72
2022/05/23 13:23:16;;;;;;;2.97;1.23;;;34.60;54.80;;;;;;5022365;28;20056;-72
2022/05/23 13:26:21;;;;;;;3.15;1.40;;;34.40;56.40;;;;;;5028817;28;20049;-72
2022/05/23 13:29:26;;;;;;;1.92;1.50;;;33.90;54.80;;;;;;5027144;28;20393;-71
2022/05/23 13:32:30;;;;;;;3.35;1.58;;;34.10;55.40;;;;;;5019429;28;20041;-70
2022/05/23 13:35:36;;;;;;;3.30;1.60;;;34.80;57.50;;;;;;5024718;28;20052;-70
2022/05/23 13:38:43;;;;;;;2.03;1.42;;;35.00;57.90;;;;;;5026206;28;20056;-71
2022/05/23 13:41:47;;;;;;;3.95;1.85;;;34.30;58.70;;;;;;5028814;28;20036;-71
2022/05/23 13:45:13;;;;;;;3.17;1.50;;;35.00;57.80;;;;;;5032067;28;20057;-71
2022/05/23 13:48:27;;;;;;;5.03;1.80;;;35.50;57.50;;;;;;5026117;28;20045;-71
2022/05/23 13:51:51;;;;;;;7.78;2.15;;;34.20;58.20;;;;;;5028180;28;20388;-73
2022/05/23 13:55:05;;;;;;;7.68;1.88;;;32.70;60.40;;;;;;5030520;28;20048;-72
2022/05/23 13:58:32;;;;;;;6.10;1.70;;;33.30;60.10;;;;;;5024562;28;20045;-70
2022/05/23 14:01:45;;;;;;;6.60;2.03;;;33.90;59.40;;;;;;5030579;28;20032;-70
2022/05/23 14:04:51;;;;;;;6.82;2.10;;;34.30;60.60;;;;;;5029341;28;20060;-71
2022/05/23 14:07:56;;;;;;;5.95;1.75;;;34.50;60.50;;;;;;5032373;28;20045;-70
2022/05/23 14:11:22;;;;;;;5.05;2.55;;;34.80;60.00;;;;;;5032598;28;20040;-70
2022/05/23 14:14:39;;;;;;;8.07;1.65;;;34.90;60.40;;;;;;5031768;28;20049;-71
2022/05/23 14:17:49;;;;;;;5.65;1.90;;;35.00;59.80;;;;;;5027681;28;20044;-70
2022/05/23 14:20:52;;;;;;;3.50;1.70;;;35.10;58.80;;;;;;5032477;28;20511;-69
2022/05/23 14:23:56;;;;;;;5.00;1.70;;;35.20;58.90;;;;;;5029125;28;20409;-71
2022/05/23 14:27:11;;;;;;;3.67;1.42;;;34.70;60.10;;;;;;5031589;28;20052;-70
2022/05/23 14:30:29;;;;;;;7.30;2.08;;;34.60;61.30;;;;;;5025838;28;20048;-70
2022/05/23 14:33:43;;;;;;;7.75;1.83;;;34.00;60.90;;;;;;5015032;28;20045;-72
2022/05/23 14:36:54;;;;;;;8.13;2.42;;;33.90;61.80;;;;;;5029650;28;20049;-70
2022/05/23 14:39:58;;;;;;;4.75;2.15;;;32.60;62.10;;;;;;5032608;28;20072;-70
2022/05/23 14:43:10;;;;;;;9.38;1.90;;;33.10;64.10;;;;;;5031609;28;20423;-71
2022/05/23 14:46:26;;;;;;;3.85;1.85;;;32.90;64.50;;;;;;5021941;28;20208;-72
2022/05/23 14:49:44;;;;;;;11.40;2.30;;;31.70;65.30;;;;;;5027571;28;20511;-70
2022/05/23 14:56:19;;;;;;;6.22;2.33;;;31.60;64.00;;;;;;5029674;28;20061;-70
2022/05/23 15:03:22;;;;;;;8.63;2.47;;;31.20;65.60;;;;;;5022904;28;20048;-70
2022/05/23 15:06:28;;;;;;;7.30;2.40;;;31.70;66.60;;;;;;5022198;28;20061;-71
2022/05/23 15:09:32;;;;;;;8.05;2.08;;;32.10;65.80;;;;;;5029527;28;20442;-70
2022/05/23 15:12:38;;;;;;;6.82;2.38;;;32.30;64.80;;;;;;5028977;28;20044;-71
2022/05/23 15:15:43;;;;;;;4.35;1.90;;;31.50;63.80;;;;;;5033307;28;20045;-70
2022/05/23 15:18:47;;;;;;;4.80;2.13;;;31.60;64.20;;;;;;5033374;28;20057;-70
2022/05/23 15:21:51;;;;;;;5.97;2.20;;;31.80;65.50;;;;;;5032552;28;20044;-70
2022/05/23 15:24:54;;;;;;;12.63;2.30;;;31.60;65.80;;;;;;5030219;28;20045;-70
2022/05/23 15:28:02;;;;;;;10.18;2.25;;;32.00;65.70;;;;;;5014719;28;20051;-70
2022/05/23 15:31:07;;;;;;;9.73;2.33;;;31.80;67.70;;;;;;5012912;28;20503;-70
2022/05/23 15:34:13;;;;;;;5.05;2.10;;;31.70;66.40;;;;;;5012712;28;20054;-70
2022/05/23 15:37:17;;;;;;;10.50;2.67;;;31.90;66.70;;;;;;5012315;28;20377;-67
2022/05/23 15:40:23;;;;;;;5.90;2.38;;;32.10;67.60;;;;;;5012935;28;20096;-70
2022/05/23 15:43:28;;;;;;;8.10;3.10;;;32.30;68.10;;;;;;5012705;28;20048;-70
2022/05/23 15:46:33;;;;;;;7.53;2.30;;;32.40;68.00;;;;;;5012216;28;20049;-70
2022/05/23 15:49:37;;;;;;;4.82;1.92;;;32.40;69.20;;;;;;5012132;28;20041;-69
2022/05/23 15:52:41;;;;;;;3.95;2.05;;;32.40;68.50;;;;;;5012411;28;20041;-69
2022/05/23 15:55:49;;;;;;;10.07;2.67;;;31.40;67.00;;;;;;5011723;28;20061;-70
2022/05/23 15:58:53;;;;;;;3.75;1.90;;;31.00;67.80;;;;;;5012947;28;20393;-70
2022/05/23 16:01:59;;;;;;;8.75;2.58;;;31.30;68.30;;;;;;5012519;28;20045;-69
2022/05/23 16:05:05;;;;;;;9.13;3.13;;;31.30;67.80;;;;;;5012489;28;20048;-69
2022/05/23 16:08:10;;;;;;;10.50;2.60;;;31.40;68.80;;;;;;5012161;28;20053;-70
2022/05/23 16:11:26;;;;;;;5.38;2.25;;;31.30;69.40;;;;;;5012915;28;20764;-70
2022/05/23 16:14:32;;;;;;;5.70;2.30;;;31.40;71.60;;;;;;5012563;28;20053;-69
2022/05/23 16:17:38;;;;;;;9.13;2.85;;;31.50;71.10;;;;;;5011820;28;20056;-69
2022/05/23 16:20:42;;;;;;;13.65;3.13;;;31.40;71.10;;;;;;5012630;28;20495;-70
2022/05/23 16:23:46;;;;;;;7.32;2.55;;;31.10;73.20;;;;;;5012420;28;20061;-70
2022/05/23 16:26:50;;;;;;;7.55;2.42;;;30.70;72.60;;;;;;5011844;28;20082;-70
2022/05/23 16:29:54;;;;;;;4.78;2.30;;;30.50;73.50;;;;;;5012197;28;20061;-70
2022/05/23 16:36:40;;;;;;;5.53;2.58;;;30.30;75.10;;;;;;5011647;28;20048;-69
2022/05/23 16:39:44;;;;;;;4.30;2.47;;;30.30;74.90;;;;;;5011145;28;20045;-69
2022/05/23 16:42:50;;;;;;;13.82;2.88;;;30.20;74.30;;;;;;5011281;28;20349;-69
2022/05/23 16:45:54;;;;;;;6.25;3.05;;;30.20;74.70;;;;;;5011074;28;20040;-70
2022/05/23 16:48:58;;;;;;;5.63;2.55;;;30.20;74.00;;;;;;5021142;28;20049;-69
2022/05/23 16:52:03;;;;;;;6.72;2.30;;;30.20;74.50;;;;;;5016895;28;20044;-69
2022/05/23 16:55:10;;;;;;;9.85;3.00;;;30.20;75.80;;;;;;5030269;28;20040;-69
2022/05/23 16:58:14;;;;;;;10.43;2.10;;;30.10;76.20;;;;;;5028768;28;20064;-69
2022/05/23 17:01:18;;;;;;;8.63;2.75;;;30.20;74.60;;;;;;5030733;28;20044;-70
2022/05/23 17:04:23;;;;;;;12.23;3.47;;;30.20;75.30;;;;;;5029074;28;20048;-70
2022/05/23 17:07:27;;;;;;;6.07;2.25;;;30.30;75.90;;;;;;5030632;28;20056;-70
2022/05/23 17:10:31;;;;;;;11.20;2.65;;;30.20;77.10;;;;;;5030948;28;20044;-69
2022/05/23 17:13:37;;;;;;;6.18;2.40;;;30.10;76.70;;;;;;5030578;28;20068;-69
2022/05/23 17:16:44;;;;;;;7.10;2.38;;;30.10;76.70;;;;;;5029912;28;20040;-69
2022/05/23 17:20:00;;;;;;;6.07;2.67;;;30.00;76.40;;;;;;5030220;28;20041;-70
2022/05/23 17:23:08;;;;;;;4.57;3.30;;;29.90;78.00;;;;;;5030035;28;20048;-69
2022/05/23 17:26:12;;;;;;;9.05;2.88;;;29.80;77.40;;;;;;5029845;28;20060;-69
2022/05/23 17:29:17;;;;;;;8.00;2.60;;;29.70;79.10;;;;;;5029820;28;20040;-69
2022/05/23 17:32:25;;;;;;;4.32;2.53;;;29.80;79.60;;;;;;5030969;28;20045;-69
2022/05/23 17:35:30;;;;;;;6.50;2.72;;;29.80;79.00;;;;;;5030704;28;20211;-69
2022/05/23 17:38:37;;;;;;;7.82;3.25;;;29.70;79.20;;;;;;5029064;28;20471;-70
2022/05/23 17:41:43;;;;;;;5.88;2.25;;;29.50;78.50;;;;;;5029186;28;20056;-69
2022/05/23 17:44:47;;;;;;;9.00;3.55;;;29.30;79.50;;;;;;5029854;28;20467;-70
2022/05/23 17:47:53;;;;;;;12.27;4.05;;;29.10;82.40;;;;;;5029442;28;20052;-69